createdAt,value
2022-10-02T00:00:24.395Z,394.38
2022-10-02T00:05:32.211Z,410.33
2022-10-02T00:10:38.438Z,377.35
2022-10-02T00:15:44.461Z,401.08
2022-10-02T00:25:58.757Z,402.77
2022-10-02T00:31:17.131Z,401.80
2022-10-02T00:36:28.762Z,386.33
2022-10-02T00:42:19.411Z,376.13
2022-10-02T00:47:34.679Z,362.85
2022-10-02T00:52:51.303Z,361.40
2022-10-02T00:58:23.583Z,351.75
2022-10-02T01:03:30.470Z,323.15
2022-10-02T01:08:34.835Z,339.88
2022-10-02T01:13:38.811Z,322.35
2022-10-02T01:18:46.187Z,325.50
2022-10-02T01:23:54.548Z,282.05
2022-10-02T01:28:59.962Z,300.48
2022-10-02T01:34:04.020Z,299.05
2022-10-02T01:39:08.292Z,250.60
2022-10-02T01:44:14.652Z,259.48
2022-10-02T01:49:51.520Z,246.38
2022-10-02T02:00:12.816Z,256.45
2022-10-02T02:05:25.539Z,227.88
2022-10-02T02:10:41.192Z,222.68
2022-10-02T02:15:52.930Z,197.33
2022-10-02T02:21:00.440Z,182.48
2022-10-02T02:26:07.309Z,171.50
2022-10-02T02:31:13.715Z,135.88
2022-10-02T02:36:21.027Z,130.73
2022-10-02T02:41:28.164Z,104.05
2022-10-02T02:46:55.765Z,87.15
2022-10-02T02:52:02.956Z,72.07
2022-10-02T02:57:07.947Z,60.42
2022-10-02T03:02:13.330Z,56.42
2022-10-02T03:07:18.074Z,40.57
2022-10-02T03:12:30.859Z,30.25
2022-10-02T03:17:46.185Z,26.30
2022-10-02T03:22:55.843Z,24.80
2022-10-02T03:28:04.466Z,17.67
2022-10-02T03:33:11.995Z,15.23
2022-10-02T03:38:16.652Z,14.35
2022-10-02T03:43:23.210Z,11.85
2022-10-02T03:48:28.529Z,10.27
2022-10-02T03:53:35.494Z,13.13
2022-10-02T03:58:42.598Z,10.40
2022-10-02T04:03:50.883Z,9.75
2022-10-02T04:08:59.714Z,8.98
2022-10-02T04:14:07.665Z,11.55
2022-10-02T04:19:19.000Z,13.43
2022-10-02T04:24:29.936Z,13.95
2022-10-02T04:29:38.680Z,11.70
2022-10-02T04:34:44.510Z,13.25
2022-10-02T04:39:57.444Z,13.10
2022-10-02T04:45:16.422Z,16.55
2022-10-02T04:50:34.419Z,16.92
2022-10-02T04:56:04.923Z,17.98
2022-10-02T05:01:17.390Z,17.35
2022-10-02T05:06:32.933Z,17.20
2022-10-02T05:11:51.847Z,15.57
2022-10-02T05:17:08.748Z,12.77
2022-10-02T05:22:27.558Z,12.93
2022-10-02T05:27:42.924Z,8.82
2022-10-02T05:33:17.426Z,8.30
2022-10-02T05:38:39.804Z,6.90
2022-10-02T05:43:48.690Z,6.35
2022-10-02T05:48:56.985Z,4.40
2022-10-02T05:54:06.169Z,3.45
2022-10-02T05:59:15.091Z,2.65
2022-10-02T06:04:22.523Z,2.08
2022-10-02T06:09:31.084Z,2.42
2022-10-02T06:14:37.250Z,2.83
2022-10-02T06:19:45.479Z,1.95
2022-10-02T06:24:54.655Z,2.40
2022-10-02T06:30:00.692Z,3.78
2022-10-02T06:35:08.152Z,1.75
2022-10-02T06:40:47.574Z,2.70
2022-10-02T06:45:58.891Z,3.78
2022-10-02T06:51:11.080Z,2.00
2022-10-02T06:56:35.232Z,3.78
2022-10-02T07:01:46.891Z,5.50
2022-10-02T07:06:58.885Z,1.55
2022-10-02T07:12:14.259Z,5.53
2022-10-02T07:17:37.727Z,3.63
2022-10-02T07:22:51.964Z,4.00
2022-10-02T07:28:03.930Z,3.40
2022-10-02T07:33:13.223Z,1.50
2022-10-02T07:38:47.175Z,5.40
2022-10-02T07:43:57.401Z,5.13
2022-10-02T07:49:12.981Z,6.47
2022-10-02T07:54:58.370Z,5.03
2022-10-02T08:00:07.953Z,5.35
2022-10-02T08:05:20.859Z,5.45
2022-10-02T08:10:27.171Z,4.93
2022-10-02T08:15:36.508Z,5.90
2022-10-02T08:20:42.054Z,4.28
2022-10-02T08:25:50.989Z,3.50
2022-10-02T08:30:56.239Z,3.85
2022-10-02T08:36:40.765Z,2.55
2022-10-02T08:42:26.136Z,3.05
2022-10-02T08:48:16.315Z,1.88
2022-10-02T08:54:05.394Z,3.10
2022-10-02T08:59:31.987Z,3.30
2022-10-02T09:05:04.920Z,3.83
2022-10-02T09:10:50.794Z,4.80
2022-10-02T09:16:05.898Z,6.28
2022-10-02T09:21:18.984Z,2.22
2022-10-02T09:26:35.296Z,2.25
2022-10-02T09:32:06.931Z,4.55
2022-10-02T09:37:37.520Z,10.93
2022-10-02T09:43:01.932Z,4.22
2022-10-02T09:48:31.384Z,6.75
2022-10-02T09:54:02.206Z,2.33
2022-10-02T09:59:38.106Z,3.08
2022-10-02T10:05:09.166Z,2.08
2022-10-02T10:10:40.946Z,6.78
2022-10-02T10:16:19.285Z,2.75
2022-10-02T10:21:43.672Z,3.75
2022-10-02T10:27:11.959Z,4.30
2022-10-02T10:32:52.217Z,5.05
2022-10-02T10:38:15.206Z,5.95
2022-10-02T10:43:47.783Z,4.75
2022-10-02T10:49:06.943Z,4.72
2022-10-02T10:54:27.614Z,2.80
2022-10-02T11:00:03.493Z,2.63
2022-10-02T11:05:24.687Z,4.50
2022-10-02T11:10:43.483Z,1.70
2022-10-02T11:16:17.941Z,3.13
2022-10-02T11:21:39.879Z,6.18
2022-10-02T11:26:53.707Z,2.78
2022-10-02T11:32:31.942Z,1.03
2022-10-02T11:37:49.544Z,1.30
2022-10-02T11:43:03.539Z,5.07
2022-10-02T11:48:20.283Z,5.50
2022-10-02T11:53:48.470Z,2.10
2022-10-02T11:59:02.843Z,3.00
2022-10-02T12:09:24.007Z,3.88
2022-10-02T12:14:33.440Z,2.63
2022-10-02T12:20:13.543Z,1.77
2022-10-02T12:25:39.339Z,6.45
2022-10-02T12:30:47.113Z,3.80
2022-10-02T12:36:21.700Z,3.05
2022-10-02T12:41:48.595Z,8.35
2022-10-02T12:47:30.426Z,5.85
2022-10-02T12:53:11.218Z,5.32
2022-10-02T12:58:19.702Z,3.58
2022-10-02T13:04:04.291Z,5.35
2022-10-02T13:09:18.319Z,2.53
2022-10-02T13:14:54.217Z,5.05
2022-10-02T13:20:05.714Z,4.55
2022-10-02T13:25:32.094Z,1.23
2022-10-02T13:30:38.749Z,2.20
2022-10-02T13:36:08.683Z,6.53
2022-10-02T13:41:21.489Z,2.55
2022-10-02T13:46:51.996Z,4.05
2022-10-02T13:51:59.289Z,4.72
2022-10-02T13:57:09.748Z,2.30
2022-10-02T14:02:24.263Z,5.93
2022-10-02T14:07:52.067Z,4.50
2022-10-02T14:13:08.881Z,3.53
2022-10-02T14:18:42.422Z,2.70
2022-10-02T14:24:02.487Z,9.00
2022-10-02T14:29:22.382Z,2.55
2022-10-02T14:34:57.229Z,1.85
2022-10-02T14:40:03.474Z,3.05
2022-10-02T14:45:49.899Z,1.30
2022-10-02T14:51:11.135Z,5.63
2022-10-02T14:56:34.399Z,3.92
2022-10-02T15:01:45.481Z,4.38
2022-10-02T15:07:01.016Z,3.83
2022-10-02T15:12:17.864Z,4.57
2022-10-02T15:17:48.991Z,4.50
2022-10-02T15:22:59.926Z,1.65
2022-10-02T15:28:34.536Z,1.73
2022-10-02T15:33:36.763Z,1.92
2022-10-02T15:39:14.084Z,3.97
2022-10-02T15:44:40.016Z,1.63
2022-10-02T15:50:01.821Z,2.97
2022-10-02T15:55:19.488Z,2.78
2022-10-02T16:00:26.140Z,2.40
2022-10-02T16:05:53.810Z,5.72
2022-10-02T16:11:33.331Z,9.23
2022-10-02T16:17:06.348Z,4.22
2022-10-02T16:22:19.467Z,2.72
2022-10-02T16:27:32.690Z,3.22
2022-10-02T16:32:59.712Z,2.67
2022-10-02T16:38:07.720Z,3.85
2022-10-02T16:43:43.618Z,4.35
2022-10-02T16:48:53.719Z,3.50
2022-10-02T16:54:04.072Z,4.25
2022-10-02T16:59:13.241Z,2.60
2022-10-02T17:04:27.327Z,2.60
2022-10-02T17:09:36.522Z,6.40
2022-10-02T17:14:47.685Z,4.25
2022-10-02T17:19:55.676Z,7.00
2022-10-02T17:25:06.655Z,6.82
2022-10-02T17:30:20.124Z,5.18
2022-10-02T17:35:39.708Z,7.55
2022-10-02T17:40:51.223Z,5.75
2022-10-02T17:46:18.504Z,3.70
2022-10-02T17:57:18.155Z,3.63
2022-10-02T18:02:37.406Z,5.50
2022-10-02T18:07:54.477Z,2.85
2022-10-02T18:13:17.443Z,4.45
2022-10-02T18:18:28.084Z,1.80
2022-10-02T18:24:04.211Z,2.50
2022-10-02T18:29:33.215Z,2.38
2022-10-02T18:34:49.017Z,1.92
2022-10-02T18:40:06.182Z,4.55
2022-10-02T18:45:27.210Z,3.20
2022-10-02T18:50:45.422Z,3.58
2022-10-02T18:56:03.337Z,4.93
2022-10-02T19:01:17.417Z,4.95
2022-10-02T19:06:25.887Z,1.42
2022-10-02T19:11:33.350Z,3.72
2022-10-02T19:16:37.377Z,1.92
2022-10-02T19:21:41.306Z,3.90
2022-10-02T19:26:50.945Z,4.00
2022-10-02T19:31:55.789Z,5.65
2022-10-02T19:37:01.867Z,2.92
2022-10-02T19:47:17.134Z,3.75
2022-10-02T19:52:37.015Z,2.78
2022-10-02T19:57:42.271Z,7.32
2022-10-02T20:02:47.872Z,3.03
2022-10-02T20:07:54.190Z,4.90
2022-10-02T20:13:03.979Z,7.75
2022-10-02T20:18:08.114Z,6.53
2022-10-02T20:23:14.938Z,5.18
2022-10-02T20:28:27.214Z,4.03
2022-10-02T20:33:34.458Z,4.93
2022-10-02T20:38:41.709Z,3.10
2022-10-02T20:43:49.719Z,4.63
2022-10-02T20:49:09.737Z,4.10
2022-10-02T20:54:25.387Z,2.28
2022-10-02T21:00:15.571Z,2.73
2022-10-02T21:05:38.846Z,2.40
2022-10-02T21:10:58.265Z,5.57
2022-10-02T21:16:36.731Z,2.65
2022-10-02T21:22:27.537Z,3.28
2022-10-02T21:28:03.857Z,2.70
2022-10-02T21:33:15.139Z,5.10
2022-10-02T21:38:50.429Z,2.80
2022-10-02T21:44:59.230Z,4.72
2022-10-02T21:50:41.588Z,4.82
2022-10-02T21:56:21.331Z,3.83
2022-10-02T22:02:08.238Z,3.50
2022-10-02T22:07:17.470Z,3.03
2022-10-02T22:12:32.950Z,2.72
2022-10-02T22:17:57.345Z,1.77
2022-10-02T22:23:14.724Z,3.15
2022-10-02T22:28:28.090Z,4.97
2022-10-02T22:33:43.687Z,6.13
2022-10-02T22:38:50.175Z,2.20
2022-10-02T22:43:57.102Z,6.10
2022-10-02T22:49:04.632Z,2.85
2022-10-02T22:54:20.143Z,2.65
2022-10-02T22:59:29.895Z,1.83
2022-10-02T23:04:38.451Z,3.35
2022-10-02T23:09:48.483Z,4.82
2022-10-02T23:15:02.152Z,3.58
2022-10-02T23:20:12.082Z,2.88
2022-10-02T23:25:21.324Z,5.93
2022-10-02T23:30:26.887Z,2.38
2022-10-02T23:35:35.386Z,2.97
2022-10-02T23:41:17.334Z,4.35
2022-10-02T23:46:27.345Z,2.45
2022-10-02T23:51:38.581Z,6.28
2022-10-02T23:57:12.995Z,5.28
